createdAt,value
2017-10-21T00:01:05.928Z,17.30
2017-10-21T00:03:33.434Z,17.20
2017-10-21T00:06:00.862Z,17.20
2017-10-21T00:08:29.126Z,16.70
2017-10-21T00:10:56.588Z,16.70
2017-10-21T00:13:24.062Z,16.90
2017-10-21T00:15:51.518Z,17.10
2017-10-21T00:18:19.069Z,16.90
2017-10-21T00:20:46.542Z,16.60
2017-10-21T00:23:14.031Z,16.70
2017-10-21T00:25:41.492Z,16.90
2017-10-21T00:28:08.932Z,16.80
2017-10-21T00:30:36.395Z,17.10
2017-10-21T00:33:03.872Z,17.10
2017-10-21T00:35:32.099Z,17.00
2017-10-21T00:38:01.238Z,16.90
2017-10-21T00:40:29.469Z,16.90
2017-10-21T00:42:56.962Z,16.80
2017-10-21T00:45:24.468Z,17.20
2017-10-21T00:47:51.900Z,17.60
2017-10-21T00:50:20.096Z,17.40
2017-10-21T00:52:47.538Z,17.40
2017-10-21T00:55:14.999Z,17.40
2017-10-21T00:57:43.225Z,17.20
2017-10-21T01:00:10.713Z,17.20
2017-10-21T01:02:38.161Z,17.10
2017-10-21T01:05:06.383Z,17.10
2017-10-21T01:07:34.028Z,17.10
2017-10-21T01:10:01.501Z,17.20
2017-10-21T01:12:28.958Z,17.20
2017-10-21T01:14:56.393Z,17.00
2017-10-21T01:17:23.852Z,17.10
2017-10-21T01:19:52.058Z,17.00
2017-10-21T01:22:19.503Z,17.00
2017-10-21T01:24:46.942Z,16.70
2017-10-21T01:27:14.386Z,16.70
2017-10-21T01:29:42.615Z,16.50
2017-10-21T01:32:10.062Z,16.50
2017-10-21T01:34:37.519Z,16.40
2017-10-21T01:37:04.926Z,16.20
2017-10-21T01:39:33.180Z,16.20
2017-10-21T01:42:00.666Z,16.10
2017-10-21T01:44:28.914Z,16.20
2017-10-21T01:46:56.333Z,16.20
2017-10-21T01:49:23.779Z,16.30
2017-10-21T01:51:51.235Z,16.50
2017-10-21T01:54:18.674Z,16.60
2017-10-21T01:56:46.904Z,16.50
2017-10-21T01:59:15.478Z,16.50
2017-10-21T02:01:42.928Z,16.40
2017-10-21T02:04:10.374Z,16.30
2017-10-21T02:06:37.806Z,16.40
2017-10-21T02:09:06.035Z,16.30
2017-10-21T02:11:33.475Z,16.30
2017-10-21T02:14:00.946Z,16.20
2017-10-21T02:16:28.392Z,16.30
2017-10-21T02:18:55.854Z,16.30
2017-10-21T02:21:23.311Z,16.30
2017-10-21T02:23:50.748Z,16.50
2017-10-21T02:26:18.228Z,16.60
2017-10-21T02:28:45.658Z,16.70
2017-10-21T02:31:13.118Z,16.50
2017-10-21T02:33:40.607Z,16.80
2017-10-21T02:36:08.062Z,16.60
2017-10-21T02:38:35.546Z,16.60
2017-10-21T02:41:03.038Z,16.70
2017-10-21T02:43:31.239Z,16.70
2017-10-21T02:45:58.702Z,16.70
2017-10-21T02:48:26.173Z,16.40
2017-10-21T02:50:53.643Z,16.20
2017-10-21T02:53:21.090Z,16.30
2017-10-21T02:55:48.548Z,16.60
2017-10-21T02:58:16.514Z,16.40
2017-10-21T03:00:44.193Z,16.40
2017-10-21T03:03:11.633Z,16.50
2017-10-21T03:05:39.114Z,16.00
2017-10-21T03:08:06.546Z,16.00
2017-10-21T03:10:34.023Z,16.00
2017-10-21T03:13:01.479Z,16.10
2017-10-21T03:15:28.926Z,16.30
2017-10-21T03:17:56.377Z,16.00
2017-10-21T03:20:23.845Z,16.00
2017-10-21T03:22:51.302Z,15.80
2017-10-21T03:25:18.778Z,15.90
2017-10-21T03:27:46.250Z,15.70
2017-10-21T03:30:14.497Z,15.70
2017-10-21T03:32:41.946Z,15.70
2017-10-21T03:35:09.426Z,15.50
2017-10-21T03:37:36.900Z,15.50
2017-10-21T03:40:04.369Z,15.70
2017-10-21T03:42:32.597Z,15.80
2017-10-21T03:45:00.794Z,15.80
2017-10-21T03:47:28.995Z,15.80
2017-10-21T03:49:57.250Z,15.70
2017-10-21T03:52:24.701Z,15.70
2017-10-21T03:54:52.983Z,15.90
2017-10-21T03:57:20.441Z,15.80
2017-10-21T03:59:47.973Z,15.70
2017-10-21T04:02:15.382Z,15.90
2017-10-21T04:04:42.846Z,16.00
2017-10-21T04:07:11.269Z,15.80
2017-10-21T04:09:39.144Z,15.80
2017-10-21T04:12:06.611Z,15.70
2017-10-21T04:14:34.078Z,15.80
2017-10-21T04:17:01.537Z,15.90
2017-10-21T04:19:29.013Z,16.20
2017-10-21T04:21:56.462Z,16.40
2017-10-21T04:24:23.926Z,16.20
2017-10-21T04:26:51.383Z,16.10
2017-10-21T04:29:18.879Z,16.20
2017-10-21T04:31:46.350Z,16.00
2017-10-21T04:34:13.858Z,16.00
2017-10-21T04:36:41.363Z,16.10
2017-10-21T04:39:09.697Z,16.10
2017-10-21T04:41:37.196Z,16.10
2017-10-21T04:44:04.725Z,16.20
2017-10-21T04:46:32.978Z,16.00
2017-10-21T04:49:01.629Z,16.20
2017-10-21T04:51:29.112Z,16.20
2017-10-21T04:53:56.563Z,16.20
2017-10-21T04:56:24.023Z,16.50
2017-10-21T04:58:51.481Z,16.50
2017-10-21T05:01:18.935Z,16.50
2017-10-21T05:03:46.423Z,16.60
2017-10-21T05:06:14.671Z,16.50
2017-10-21T05:08:43.076Z,16.50
2017-10-21T05:11:10.575Z,16.70
2017-10-21T05:13:38.049Z,16.60
2017-10-21T05:16:05.507Z,16.50
2017-10-21T05:18:32.968Z,16.40
2017-10-21T05:21:00.982Z,16.30
2017-10-21T05:23:28.494Z,16.20
2017-10-21T05:25:55.997Z,16.20
2017-10-21T05:28:23.435Z,16.30
2017-10-21T05:30:51.034Z,16.50
2017-10-21T05:33:19.266Z,16.20
2017-10-21T05:35:46.727Z,16.20
2017-10-21T05:38:14.186Z,16.00
2017-10-21T05:40:42.254Z,15.90
2017-10-21T05:43:10.373Z,15.80
2017-10-21T05:45:38.659Z,15.50
2017-10-21T05:48:06.122Z,15.50
2017-10-21T05:50:33.602Z,15.50
2017-10-21T05:53:01.043Z,15.60
2017-10-21T05:55:28.499Z,15.70
2017-10-21T05:57:55.978Z,15.60
2017-10-21T06:00:23.398Z,15.40
2017-10-21T06:02:50.998Z,15.80
2017-10-21T06:05:18.451Z,15.50
2017-10-21T06:07:45.902Z,15.40
2017-10-21T06:10:13.342Z,15.60
2017-10-21T06:12:40.799Z,15.60
2017-10-21T06:15:08.982Z,15.80
2017-10-21T06:17:36.445Z,15.80
2017-10-21T06:20:03.886Z,15.60
2017-10-21T06:22:31.548Z,15.70
2017-10-21T06:24:59.795Z,15.70
2017-10-21T06:27:27.289Z,15.70
2017-10-21T06:29:55.473Z,15.40
2017-10-21T06:32:22.924Z,15.30
2017-10-21T06:34:50.370Z,15.50
2017-10-21T06:37:17.816Z,15.60
2017-10-21T06:39:46.022Z,15.20
2017-10-21T06:42:13.484Z,15.10
2017-10-21T06:44:40.930Z,15.50
2017-10-21T06:47:08.410Z,15.30
2017-10-21T06:49:35.845Z,15.40
2017-10-21T06:52:03.444Z,15.60
2017-10-21T06:54:31.060Z,15.60
2017-10-21T06:56:59.270Z,15.90
2017-10-21T06:59:26.733Z,15.90
2017-10-21T07:01:54.192Z,15.70
2017-10-21T07:04:21.650Z,15.60
2017-10-21T07:06:49.157Z,15.70
2017-10-21T07:09:17.374Z,15.80
2017-10-21T07:11:44.823Z,15.80
2017-10-21T07:14:12.279Z,16.20
2017-10-21T07:16:39.764Z,16.30
2017-10-21T07:19:07.203Z,16.60
2017-10-21T07:21:34.651Z,16.70
2017-10-21T07:24:02.150Z,16.60
2017-10-21T07:26:29.601Z,16.60
2017-10-21T07:28:57.035Z,16.70
2017-10-21T07:31:24.512Z,16.60
2017-10-21T07:33:51.953Z,16.60
2017-10-21T07:36:19.430Z,16.70
2017-10-21T07:38:46.870Z,16.60
2017-10-21T07:41:14.330Z,17.00
2017-10-21T07:43:41.786Z,16.90
2017-10-21T07:46:09.286Z,17.20
2017-10-21T07:48:37.529Z,16.70
2017-10-21T07:51:04.989Z,16.70
2017-10-21T07:53:32.450Z,16.60
2017-10-21T07:55:59.922Z,16.70
2017-10-21T07:58:27.357Z,16.90
2017-10-21T08:00:54.823Z,17.00
2017-10-21T08:03:22.283Z,17.20
2017-10-21T08:05:49.753Z,17.30
2017-10-21T08:08:17.204Z,17.50
2017-10-21T08:10:44.678Z,17.50
2017-10-21T08:13:12.157Z,17.60
2017-10-21T08:15:40.425Z,17.20
2017-10-21T08:18:08.689Z,17.10
2017-10-21T08:20:36.158Z,17.10
2017-10-21T08:23:03.619Z,17.30
2017-10-21T08:25:31.054Z,17.10
2017-10-21T08:27:58.520Z,17.10
2017-10-21T08:30:25.954Z,17.30
2017-10-21T08:32:53.455Z,17.60
2017-10-21T08:35:21.685Z,17.60
2017-10-21T08:37:49.193Z,17.60
2017-10-21T08:40:18.463Z,17.70
2017-10-21T08:42:45.921Z,17.70
2017-10-21T08:45:13.374Z,17.60
2017-10-21T08:47:40.834Z,17.50
2017-10-21T08:50:08.282Z,17.40
2017-10-21T08:52:35.772Z,16.90
2017-10-21T08:55:03.974Z,16.90
2017-10-21T08:57:31.417Z,16.90
2017-10-21T08:59:58.868Z,16.80
2017-10-21T09:02:27.061Z,16.90
2017-10-21T09:04:54.516Z,16.90
2017-10-21T09:07:21.964Z,16.90
2017-10-21T09:09:50.162Z,17.10
2017-10-21T09:12:17.665Z,17.10
2017-10-21T09:14:45.175Z,16.80
2017-10-21T09:17:12.639Z,17.10
2017-10-21T09:19:40.085Z,17.10
2017-10-21T09:22:07.533Z,17.30
2017-10-21T09:24:34.986Z,17.50
2017-10-21T09:27:02.487Z,17.80
2017-10-21T09:29:30.030Z,18.00
2017-10-21T09:31:57.481Z,18.00
2017-10-21T09:34:25.106Z,18.00
2017-10-21T09:36:53.334Z,17.70
2017-10-21T09:39:20.790Z,17.70
2017-10-21T09:41:48.242Z,18.10
2017-10-21T09:44:15.692Z,18.30
2017-10-21T09:46:43.150Z,18.40
2017-10-21T09:49:10.632Z,18.60
2017-10-21T09:51:38.090Z,18.40
2017-10-21T09:54:05.547Z,18.10
2017-10-21T09:56:33.003Z,18.40
2017-10-21T09:59:01.351Z,18.40
2017-10-21T10:01:28.808Z,18.40
2017-10-21T10:03:57.041Z,18.00
2017-10-21T10:06:24.514Z,18.00
2017-10-21T10:08:51.976Z,17.90
2017-10-21T10:11:19.425Z,18.30
2017-10-21T10:13:47.635Z,18.80
2017-10-21T10:16:15.075Z,18.80
2017-10-21T10:18:43.308Z,19.00
2017-10-21T10:21:10.782Z,19.00
2017-10-21T10:23:38.271Z,18.80
2017-10-21T10:26:06.555Z,19.20
2017-10-21T10:28:34.830Z,19.10
2017-10-21T10:31:03.060Z,18.90
2017-10-21T10:33:31.296Z,19.10
2017-10-21T10:36:05.613Z,19.10
2017-10-21T10:38:33.125Z,19.30
2017-10-21T10:41:02.165Z,18.90
2017-10-21T10:43:36.474Z,19.30
2017-10-21T10:46:06.095Z,19.50
2017-10-21T10:48:33.618Z,19.40
2017-10-21T10:51:05.424Z,19.20
2017-10-21T10:53:32.875Z,19.20
2017-10-21T10:56:01.250Z,19.30
2017-10-21T10:58:28.714Z,19.20
2017-10-21T11:00:56.430Z,19.00
2017-10-21T11:03:23.891Z,19.10
2017-10-21T11:05:52.111Z,19.40
2017-10-21T11:08:19.574Z,19.40
2017-10-21T11:10:47.030Z,19.10
2017-10-21T11:13:14.463Z,19.30
2017-10-21T11:15:41.926Z,19.70
2017-10-21T11:18:09.387Z,19.60
2017-10-21T11:20:36.926Z,19.70
2017-10-21T11:23:05.150Z,19.60
2017-10-21T11:25:32.590Z,19.60
2017-10-21T11:28:00.044Z,19.60
2017-10-21T11:30:27.519Z,19.90
2017-10-21T11:32:56.724Z,20.30
2017-10-21T11:35:24.457Z,20.60
2017-10-21T11:37:52.872Z,20.40
2017-10-21T11:40:21.253Z,20.30
2017-10-21T11:42:49.042Z,20.70
2017-10-21T11:45:16.479Z,20.70
2017-10-21T11:47:43.914Z,20.50
2017-10-21T11:50:11.496Z,20.30
2017-10-21T11:52:38.937Z,20.30
2017-10-21T11:55:06.494Z,20.20
2017-10-21T11:57:33.974Z,20.20
2017-10-21T12:00:01.483Z,20.30
2017-10-21T12:02:30.359Z,20.20
2017-10-21T12:04:58.825Z,20.70
2017-10-21T12:07:27.871Z,20.60
2017-10-21T12:09:55.354Z,20.60
2017-10-21T12:12:25.971Z,20.60
2017-10-21T12:17:25.574Z,20.90
2017-10-21T12:19:53.045Z,20.90
2017-10-21T12:22:20.558Z,21.20
2017-10-21T12:24:47.985Z,22.10
2017-10-21T12:27:15.442Z,22.10
2017-10-21T12:29:42.902Z,21.90
2017-10-21T12:32:10.365Z,21.80
2017-10-21T12:34:37.842Z,21.40
2017-10-21T12:37:05.303Z,21.80
2017-10-21T12:39:32.748Z,21.90
2017-10-21T12:42:00.218Z,21.90
2017-10-21T12:44:27.812Z,22.00
2017-10-21T12:46:55.240Z,22.10
2017-10-21T12:49:22.708Z,22.00
2017-10-21T12:51:50.162Z,21.90
2017-10-21T12:54:17.606Z,22.00
2017-10-21T12:56:45.073Z,22.10
2017-10-21T12:59:12.527Z,22.50
2017-10-21T13:01:40.743Z,24.90
2017-10-21T13:04:08.183Z,24.80
2017-10-21T13:06:35.626Z,26.50
2017-10-21T13:09:03.818Z,24.90
2017-10-21T13:11:31.295Z,24.90
2017-10-21T13:13:58.730Z,24.80
2017-10-21T13:16:26.957Z,24.00
2017-10-21T13:18:54.419Z,24.00
2017-10-21T13:21:21.901Z,24.00
2017-10-21T13:23:49.368Z,23.70
2017-10-21T13:26:17.842Z,22.50
2017-10-21T13:28:45.315Z,22.10
2017-10-21T13:31:14.173Z,21.90
2017-10-21T13:33:41.635Z,21.90
2017-10-21T13:36:09.093Z,22.20
2017-10-21T13:38:36.566Z,22.60
2017-10-21T13:41:04.776Z,22.80
2017-10-21T13:43:32.227Z,22.80
2017-10-21T13:45:59.666Z,22.90
2017-10-21T13:48:27.927Z,22.40
2017-10-21T13:50:55.412Z,22.40
2017-10-21T13:53:22.870Z,22.30
2017-10-21T13:55:50.327Z,22.30
2017-10-21T13:58:17.785Z,22.20
2017-10-21T14:00:45.243Z,22.40
2017-10-21T14:03:12.704Z,22.20
2017-10-21T14:05:40.163Z,22.10
2017-10-21T14:08:07.617Z,22.20
2017-10-21T14:10:35.104Z,22.20
2017-10-21T14:13:02.578Z,22.20
2017-10-21T14:15:30.040Z,21.80
2017-10-21T14:17:57.515Z,21.80
2017-10-21T14:20:25.002Z,21.40
2017-10-21T14:22:53.234Z,22.00
2017-10-21T14:25:20.693Z,22.00
2017-10-21T14:27:48.163Z,21.90
2017-10-21T14:30:15.671Z,21.70
2017-10-21T14:32:43.115Z,21.30
2017-10-21T14:35:11.349Z,22.30
2017-10-21T14:37:38.807Z,22.30
2017-10-21T14:40:06.291Z,22.70
2017-10-21T14:42:34.494Z,22.40
2017-10-21T14:45:01.955Z,22.40
2017-10-21T14:47:29.418Z,22.20
2017-10-21T14:49:56.981Z,22.00
2017-10-21T14:52:24.430Z,21.80
2017-10-21T14:54:51.883Z,21.50
2017-10-21T14:57:19.344Z,21.20
2017-10-21T14:59:46.799Z,20.80
2017-10-21T15:02:14.358Z,20.90
2017-10-21T15:04:41.818Z,20.70
2017-10-21T15:07:09.283Z,20.90
2017-10-21T15:09:36.753Z,20.70
2017-10-21T15:12:04.224Z,20.80
2017-10-21T15:14:31.679Z,21.20
2017-10-21T15:16:59.185Z,21.40
2017-10-21T15:19:27.412Z,21.00
2017-10-21T15:21:54.879Z,21.00
2017-10-21T15:24:22.348Z,21.30
2017-10-21T15:26:49.853Z,21.30
2017-10-21T15:29:17.352Z,21.00
2017-10-21T15:31:44.888Z,20.70
2017-10-21T15:34:12.370Z,20.80
2017-10-21T15:36:39.837Z,21.00
2017-10-21T15:39:07.275Z,21.00
2017-10-21T15:41:34.735Z,20.80
2017-10-21T15:44:02.206Z,20.10
2017-10-21T15:46:29.671Z,20.30
2017-10-21T15:48:57.174Z,20.70
2017-10-21T15:51:24.645Z,20.90
2017-10-21T15:53:52.108Z,21.10
2017-10-21T15:56:19.559Z,20.70
2017-10-21T15:58:47.038Z,20.60
2017-10-21T16:01:14.503Z,20.60
2017-10-21T16:03:41.958Z,20.60
2017-10-21T16:06:09.423Z,20.20
2017-10-21T16:08:37.718Z,20.30
2017-10-21T16:11:05.163Z,20.20
2017-10-21T16:13:32.634Z,19.90
2017-10-21T16:16:00.079Z,19.80
2017-10-21T16:18:27.555Z,20.00
2017-10-21T16:20:55.073Z,19.80
2017-10-21T16:23:22.555Z,19.80
2017-10-21T16:25:50.017Z,19.80
2017-10-21T16:28:17.486Z,19.90
2017-10-21T16:30:44.940Z,19.90
2017-10-21T16:33:12.406Z,19.80
2017-10-21T16:35:39.878Z,20.00
2017-10-21T16:38:07.318Z,19.80
2017-10-21T16:40:34.763Z,19.60
2017-10-21T16:43:02.252Z,19.50
2017-10-21T16:45:30.477Z,19.20
2017-10-21T16:47:57.990Z,19.20
2017-10-21T16:50:26.214Z,19.30
2017-10-21T16:52:53.687Z,19.30
2017-10-21T16:55:21.167Z,19.40
2017-10-21T16:57:49.418Z,19.50
2017-10-21T17:00:17.083Z,19.50
2017-10-21T17:02:44.557Z,19.30
2017-10-21T17:05:12.008Z,19.60
2017-10-21T17:07:39.478Z,19.20
2017-10-21T17:10:06.976Z,19.70
2017-10-21T17:12:34.431Z,19.70
2017-10-21T17:15:01.908Z,19.90
2017-10-21T17:17:29.344Z,19.80
2017-10-21T17:19:56.970Z,19.60
2017-10-21T17:22:24.423Z,19.40
2017-10-21T17:24:51.905Z,19.40
2017-10-21T17:27:20.100Z,18.90
2017-10-21T17:29:47.567Z,18.90
2017-10-21T17:32:15.019Z,18.90
2017-10-21T17:34:42.482Z,18.80
2017-10-21T17:37:10.846Z,18.90
2017-10-21T17:39:38.321Z,18.90
2017-10-21T17:42:05.784Z,19.00
2017-10-21T17:44:33.254Z,18.80
2017-10-21T17:47:00.704Z,18.70
2017-10-21T17:49:28.208Z,18.50
2017-10-21T17:51:56.440Z,18.30
2017-10-21T17:54:23.892Z,18.20
2017-10-21T17:56:52.230Z,18.10
2017-10-21T17:59:20.450Z,18.20
2017-10-21T18:01:47.929Z,18.20
2017-10-21T18:04:15.363Z,18.50
2017-10-21T18:06:42.826Z,18.30
2017-10-21T18:09:10.742Z,17.90
2017-10-21T18:11:38.323Z,17.70
2017-10-21T18:14:06.547Z,17.80
2017-10-21T18:16:34.014Z,17.80
2017-10-21T18:19:01.895Z,18.00
2017-10-21T18:21:29.375Z,18.10
2017-10-21T18:23:57.812Z,18.00
2017-10-21T18:26:25.249Z,18.00
2017-10-21T18:28:52.736Z,18.10
2017-10-21T18:31:20.253Z,18.20
2017-10-21T18:33:47.754Z,18.20
2017-10-21T18:36:15.304Z,17.90
2017-10-21T18:38:43.756Z,17.60
2017-10-21T18:41:11.201Z,17.80
2017-10-21T18:43:38.676Z,17.60
2017-10-21T18:46:06.127Z,17.40
2017-10-21T18:48:33.590Z,17.40
2017-10-21T18:51:01.980Z,17.60
2017-10-21T18:53:29.463Z,17.20
2017-10-21T18:55:57.272Z,17.20
2017-10-21T18:58:25.492Z,17.20
2017-10-21T19:00:52.966Z,17.20
2017-10-21T19:03:20.483Z,17.30
2017-10-21T19:05:47.973Z,17.20
2017-10-21T19:08:15.427Z,17.20
2017-10-21T19:10:43.278Z,17.30
2017-10-21T19:13:10.744Z,16.90
2017-10-21T19:15:38.210Z,16.70
2017-10-21T19:18:05.657Z,16.70
2017-10-21T19:20:33.136Z,17.00
2017-10-21T19:23:00.574Z,17.10
2017-10-21T19:25:28.038Z,17.20
2017-10-21T19:27:55.505Z,17.00
2017-10-21T19:30:22.962Z,17.20
2017-10-21T19:32:50.424Z,17.10
2017-10-21T19:35:17.882Z,17.00
2017-10-21T19:37:45.344Z,16.70
2017-10-21T19:40:12.805Z,17.00
2017-10-21T19:42:41.058Z,17.20
2017-10-21T19:45:08.543Z,17.20
2017-10-21T19:47:36.103Z,17.40
2017-10-21T19:50:04.365Z,16.80
2017-10-21T19:52:31.850Z,16.80
2017-10-21T19:55:00.064Z,17.20
2017-10-21T19:57:27.562Z,17.20
2017-10-21T19:59:55.026Z,17.40
2017-10-21T20:02:22.505Z,17.30
2017-10-21T20:04:50.721Z,17.20
2017-10-21T20:07:18.175Z,17.20
2017-10-21T20:09:45.634Z,17.00
2017-10-21T20:12:13.100Z,17.10
2017-10-21T20:14:40.558Z,17.10
2017-10-21T20:17:08.947Z,17.40
2017-10-21T20:19:36.462Z,17.70
2017-10-21T20:22:03.937Z,17.90
2017-10-21T20:24:32.176Z,17.10
2017-10-21T20:26:59.618Z,17.00
2017-10-21T20:29:27.122Z,17.20
2017-10-21T20:31:55.346Z,16.80
2017-10-21T20:34:22.862Z,16.80
2017-10-21T20:36:51.158Z,16.70
2017-10-21T20:39:18.662Z,16.30
2017-10-21T20:41:46.934Z,16.60
2017-10-21T20:44:15.195Z,16.80
2017-10-21T20:46:42.652Z,16.80
2017-10-21T20:49:10.110Z,16.50
2017-10-21T20:51:37.610Z,16.60
2017-10-21T20:54:05.108Z,16.60
2017-10-21T20:56:32.601Z,16.50
2017-10-21T20:59:00.047Z,16.60
2017-10-21T21:01:27.527Z,16.50
2017-10-21T21:03:54.994Z,16.30
2017-10-21T21:06:22.450Z,16.30
2017-10-21T21:08:49.901Z,16.50
2017-10-21T21:11:17.338Z,16.40
2017-10-21T21:13:44.778Z,16.80
2017-10-21T21:16:12.254Z,17.00
2017-10-21T21:18:39.730Z,16.80
2017-10-21T21:21:07.967Z,16.70
2017-10-21T21:23:35.433Z,16.70
2017-10-21T21:26:03.668Z,16.60
2017-10-21T21:28:32.274Z,16.60
2017-10-21T21:30:59.720Z,16.50
2017-10-21T21:33:27.172Z,16.60
2017-10-21T21:35:54.615Z,16.30
2017-10-21T21:38:22.102Z,16.30
2017-10-21T21:40:50.295Z,16.40
2017-10-21T21:43:17.725Z,16.50
2017-10-21T21:45:45.170Z,16.50
2017-10-21T21:48:12.608Z,16.40
2017-10-21T21:50:40.810Z,16.40
2017-10-21T21:53:08.322Z,16.40
2017-10-21T21:55:35.781Z,16.60
2017-10-21T21:58:03.234Z,16.40
2017-10-21T22:00:30.702Z,16.50
2017-10-21T22:02:58.928Z,16.30
2017-10-21T22:05:26.382Z,16.20
2017-10-21T22:07:53.827Z,16.20
2017-10-21T22:10:21.306Z,16.40
2017-10-21T22:12:48.753Z,16.20
2017-10-21T22:15:16.216Z,16.30
2017-10-21T22:17:43.677Z,16.40
2017-10-21T22:20:11.127Z,16.30
2017-10-21T22:22:38.594Z,16.50
2017-10-21T22:25:06.050Z,16.30
2017-10-21T22:27:33.532Z,16.40
2017-10-21T22:30:00.960Z,16.30
2017-10-21T22:32:28.404Z,16.30
2017-10-21T22:34:55.848Z,16.40
2017-10-21T22:37:23.297Z,16.40
2017-10-21T22:39:51.594Z,16.60
2017-10-21T22:42:19.813Z,16.70
2017-10-21T22:44:47.302Z,16.70
2017-10-21T22:47:14.741Z,16.80
2017-10-21T22:49:42.235Z,16.50
2017-10-21T22:52:09.674Z,16.60
2017-10-21T22:54:37.898Z,16.60
2017-10-21T22:57:05.387Z,16.60
2017-10-21T22:59:32.847Z,16.60
2017-10-21T23:02:00.325Z,16.40
2017-10-21T23:04:28.574Z,16.00
2017-10-21T23:06:56.901Z,15.90
2017-10-21T23:09:24.457Z,16.10
2017-10-21T23:11:51.917Z,16.20
2017-10-21T23:14:19.357Z,16.10
2017-10-21T23:16:47.598Z,15.90
2017-10-21T23:19:15.055Z,15.90
2017-10-21T23:21:42.536Z,16.20
2017-10-21T23:24:10.015Z,16.30
2017-10-21T23:26:38.269Z,16.50
2017-10-21T23:29:05.747Z,16.40
2017-10-21T23:31:34.878Z,16.20
2017-10-21T23:34:02.383Z,16.20
2017-10-21T23:36:29.837Z,16.40
2017-10-21T23:38:57.307Z,16.40
2017-10-21T23:41:25.516Z,15.90
2017-10-21T23:43:52.962Z,15.90
2017-10-21T23:46:20.434Z,15.70
2017-10-21T23:48:48.219Z,15.90
2017-10-21T23:51:15.670Z,16.00
2017-10-21T23:53:43.183Z,15.80
2017-10-21T23:56:10.654Z,16.00
2017-10-21T23:58:38.123Z,16.20
